Time;durP1;ratioP1;P1;durP2;ratioP2;P2;SDS_P1;SDS_P2;PMS_P1;PMS_P2;Temp;Humidity;BMP_temperature;BMP_pressure;BME280_temperature;BME280_humidity;BME280_pressure;Samples;Min_cycle;Max_cycle;Signal;HPM_P1;HPM_P2
2021/01/12 00:00:15;;;;;;;34.78;16.30;;;-0.30;99.90;;;;;;4909117;29;20052;-72
2021/01/12 00:02:42;;;;;;;34.55;17.35;;;-0.30;99.90;;;;;;4908686;29;20091;-73
2021/01/12 00:05:09;;;;;;;32.65;16.40;;;-0.20;99.90;;;;;;4907845;29;20119;-72
2021/01/12 00:07:35;;;;;;;27.85;13.65;;;-0.20;99.90;;;;;;4913078;29;20059;-73
2021/01/12 00:10:04;;;;;;;29.65;15.27;;;-0.20;99.90;;;;;;4912479;29;20056;-73
2021/01/12 00:12:30;;;;;;;35.10;18.38;;;-0.30;99.90;;;;;;4912207;29;20146;-72
2021/01/12 00:14:57;;;;;;;30.52;15.23;;;-0.20;99.90;;;;;;4911897;29;20072;-72
2021/01/12 00:17:23;;;;;;;32.95;16.35;;;-0.10;99.90;;;;;;4912358;29;20075;-72
2021/01/12 00:19:50;;;;;;;34.90;18.70;;;-0.20;99.90;;;;;;4912518;29;20107;-72
2021/01/12 00:22:17;;;;;;;25.38;12.93;;;-0.20;99.90;;;;;;4911778;29;20091;-72
2021/01/12 00:24:49;;;;;;;28.52;13.25;;;-0.20;99.90;;;;;;4910487;29;20083;-73
2021/01/12 00:27:18;;;;;;;33.17;17.77;;;-0.20;99.90;;;;;;4912422;29;20076;-72
2021/01/12 00:29:44;;;;;;;28.75;15.60;;;-0.20;99.90;;;;;;4912682;29;20086;-73
2021/01/12 00:32:19;;;;;;;36.55;19.20;;;-0.10;99.90;;;;;;4912428;29;20052;-72
2021/01/12 00:34:46;;;;;;;35.05;15.65;;;-0.10;99.90;;;;;;4911890;29;20071;-73
2021/01/12 00:37:15;;;;;;;26.88;13.02;;;-0.20;99.90;;;;;;4912642;29;20138;-72
2021/01/12 00:39:42;;;;;;;31.98;16.60;;;-0.10;99.90;;;;;;4912073;29;20829;-72
2021/01/12 00:42:08;;;;;;;33.90;17.50;;;-0.10;99.90;;;;;;4911231;29;20044;-72
2021/01/12 00:44:35;;;;;;;30.33;16.45;;;-0.10;99.90;;;;;;4912451;29;20181;-72
2021/01/12 00:47:01;;;;;;;32.55;17.25;;;-0.10;99.90;;;;;;4912157;29;20083;-72
2021/01/12 00:49:28;;;;;;;29.00;15.50;;;-0.10;99.90;;;;;;4911620;29;20059;-73
2021/01/12 00:51:54;;;;;;;28.30;15.57;;;0.00;99.90;;;;;;4912110;29;20154;-72
2021/01/12 00:54:24;;;;;;;28.50;14.15;;;0.00;99.90;;;;;;4911407;29;20530;-72
2021/01/12 00:56:52;;;;;;;34.55;16.55;;;0.00;99.90;;;;;;4912305;29;20127;-72
2021/01/12 00:59:19;;;;;;;33.67;15.73;;;0.10;99.90;;;;;;4910763;29;20044;-72
2021/01/12 01:01:46;;;;;;;24.85;11.60;;;0.10;99.90;;;;;;4911269;29;20048;-72
2021/01/12 01:04:15;;;;;;;26.35;13.98;;;0.20;99.90;;;;;;4911658;29;20386;-72
2021/01/12 01:06:43;;;;;;;25.33;12.32;;;0.10;99.90;;;;;;4911797;29;20056;-72
2021/01/12 01:09:10;;;;;;;30.02;15.25;;;0.20;99.90;;;;;;4911568;29;20052;-72
2021/01/12 01:11:54;;;;;;;26.77;13.32;;;0.20;99.90;;;;;;4911719;29;20268;-72
2021/01/12 01:14:22;;;;;;;26.85;13.65;;;0.10;99.90;;;;;;4911101;29;20146;-72
2021/01/12 01:16:49;;;;;;;22.65;12.05;;;0.10;99.90;;;;;;4910161;29;21651;-72
2021/01/12 01:19:15;;;;;;;26.17;11.55;;;0.20;99.90;;;;;;4911698;29;20048;-73
2021/01/12 01:21:41;;;;;;;27.50;12.60;;;0.20;99.90;;;;;;4911214;29;20040;-73
2021/01/12 01:24:08;;;;;;;27.88;14.73;;;0.30;99.90;;;;;;4909760;29;20135;-73
2021/01/12 01:26:35;;;;;;;31.15;16.05;;;0.30;99.90;;;;;;4903615;29;20510;-72
2021/01/12 01:29:02;;;;;;;19.55;11.25;;;0.30;99.90;;;;;;4918686;29;20111;-72
2021/01/12 01:31:38;;;;;;;20.20;10.75;;;0.30;99.90;;;;;;4911608;29;20056;-72
2021/01/12 01:34:04;;;;;;;23.85;12.38;;;0.30;99.90;;;;;;4911304;29;20127;-72
2021/01/12 01:36:31;;;;;;;26.02;13.55;;;0.30;99.90;;;;;;4911472;29;20060;-72
2021/01/12 01:38:58;;;;;;;29.10;14.73;;;0.40;99.90;;;;;;4911716;29;20489;-73
2021/01/12 01:41:24;;;;;;;24.33;11.90;;;0.30;99.90;;;;;;4910395;29;20071;-72
2021/01/12 01:43:50;;;;;;;29.55;14.52;;;0.30;99.90;;;;;;4911312;29;20062;-73
2021/01/12 01:46:17;;;;;;;29.67;14.68;;;0.30;99.90;;;;;;4911695;29;20083;-72
2021/01/12 01:48:47;;;;;;;30.48;11.52;;;0.30;99.90;;;;;;4910904;29;20517;-73
2021/01/12 01:51:14;;;;;;;18.75;9.23;;;0.30;99.90;;;;;;4910771;29;20079;-73
2021/01/12 01:53:42;;;;;;;25.83;12.82;;;0.20;99.90;;;;;;4912077;29;20044;-73
2021/01/12 01:56:08;;;;;;;28.73;15.60;;;0.20;99.90;;;;;;4912431;29;20176;-73
2021/01/12 01:58:39;;;;;;;22.08;11.27;;;0.20;99.90;;;;;;4913928;29;20056;-73
2021/01/12 02:01:06;;;;;;;27.88;12.32;;;0.20;99.90;;;;;;4913442;29;20119;-73
2021/01/12 02:03:36;;;;;;;23.23;11.82;;;0.20;99.90;;;;;;4911392;29;20047;-73
2021/01/12 02:06:19;;;;;;;24.05;11.88;;;0.20;99.90;;;;;;4913824;29;20096;-73
2021/01/12 02:09:04;;;;;;;29.77;15.32;;;0.30;99.90;;;;;;4913510;29;20087;-73
2021/01/12 02:11:39;;;;;;;29.27;14.30;;;0.20;99.90;;;;;;4913208;29;20070;-72
2021/01/12 02:14:09;;;;;;;29.25;16.10;;;0.10;99.90;;;;;;4913512;29;20071;-72
2021/01/12 02:16:36;;;;;;;34.03;15.52;;;0.10;99.90;;;;;;4913389;29;20058;-72
2021/01/12 02:19:05;;;;;;;31.13;13.50;;;0.20;99.90;;;;;;4913023;29;20136;-72
2021/01/12 02:21:39;;;;;;;31.40;15.25;;;0.00;99.90;;;;;;4914072;29;20072;-72
2021/01/12 02:24:09;;;;;;;28.40;13.00;;;0.00;99.90;;;;;;4913770;29;20201;-72
2021/01/12 02:26:35;;;;;;;24.48;12.45;;;0.00;99.90;;;;;;4913249;29;20155;-72
2021/01/12 02:29:02;;;;;;;30.48;16.27;;;0.00;99.90;;;;;;4908151;29;20087;-73
2021/01/12 02:31:32;;;;;;;36.55;16.27;;;0.00;99.90;;;;;;4912000;29;20056;-72
2021/01/12 02:34:04;;;;;;;27.75;13.82;;;0.00;99.90;;;;;;4913742;29;20092;-72
2021/01/12 02:36:31;;;;;;;25.00;13.50;;;0.00;99.90;;;;;;4913831;29;20052;-72
2021/01/12 02:38:59;;;;;;;26.20;13.80;;;0.00;99.90;;;;;;4909137;29;20125;-72
2021/01/12 02:41:30;;;;;;;34.42;17.52;;;0.00;99.90;;;;;;4911714;29;20074;-72
2021/01/12 02:43:57;;;;;;;30.83;14.95;;;0.00;99.90;;;;;;4911261;29;20127;-72
2021/01/12 02:46:23;;;;;;;38.78;19.00;;;0.00;99.90;;;;;;4904517;29;20123;-72
2021/01/12 02:48:51;;;;;;;36.97;16.75;;;0.00;99.90;;;;;;4912431;29;20071;-73
2021/01/12 02:51:17;;;;;;;32.60;16.10;;;0.00;99.90;;;;;;4911689;29;20131;-72
2021/01/12 02:53:44;;;;;;;44.78;22.40;;;0.10;99.90;;;;;;4913447;29;20048;-72
2021/01/12 02:56:10;;;;;;;31.92;16.25;;;0.10;99.90;;;;;;4912632;29;20412;-73
2021/01/12 02:58:36;;;;;;;42.38;19.88;;;0.10;99.90;;;;;;4913889;29;20131;-72
2021/01/12 03:01:03;;;;;;;33.72;17.25;;;0.10;99.90;;;;;;4913337;29;20127;-72
2021/01/12 03:03:30;;;;;;;22.90;10.88;;;0.20;99.90;;;;;;4913300;29;20115;-73
2021/01/12 03:05:56;;;;;;;43.13;16.35;;;0.10;99.90;;;;;;4909841;29;20183;-73
2021/01/12 03:08:23;;;;;;;28.98;14.25;;;0.20;99.90;;;;;;4911702;29;20413;-73
2021/01/12 03:10:50;;;;;;;29.40;14.90;;;0.20;99.90;;;;;;4906442;29;20075;-73
2021/01/12 03:13:16;;;;;;;30.17;14.98;;;0.30;99.90;;;;;;4912708;29;20152;-73
2021/01/12 03:15:43;;;;;;;27.45;13.32;;;0.30;99.90;;;;;;4912578;29;20139;-73
2021/01/12 03:18:09;;;;;;;36.40;18.60;;;0.20;99.90;;;;;;4912868;29;20080;-73
2021/01/12 03:20:35;;;;;;;38.35;18.38;;;0.20;99.90;;;;;;4912695;29;20136;-73
2021/01/12 03:23:02;;;;;;;29.25;14.43;;;0.20;99.90;;;;;;4912011;29;20364;-73
2021/01/12 03:25:29;;;;;;;24.98;13.00;;;0.20;99.90;;;;;;4912573;29;20103;-73
2021/01/12 03:27:56;;;;;;;23.90;10.93;;;0.20;99.90;;;;;;4912509;29;20100;-73
2021/01/12 03:30:23;;;;;;;34.72;15.85;;;0.20;99.90;;;;;;4903437;29;20052;-73
2021/01/12 03:32:52;;;;;;;29.75;12.95;;;0.20;99.90;;;;;;4902051;29;20048;-73
2021/01/12 03:35:19;;;;;;;39.90;19.38;;;0.30;99.90;;;;;;4908588;29;20048;-73
2021/01/12 03:37:46;;;;;;;20.90;11.32;;;0.20;99.90;;;;;;4912422;29;20151;-73
2021/01/12 03:40:12;;;;;;;26.92;13.02;;;0.30;99.90;;;;;;4911635;29;20426;-73
2021/01/12 03:42:39;;;;;;;28.15;13.63;;;0.30;99.90;;;;;;4913460;29;20124;-73
2021/01/12 03:45:06;;;;;;;28.27;12.07;;;0.30;99.90;;;;;;4911385;29;20176;-73
2021/01/12 03:47:32;;;;;;;27.98;13.65;;;0.30;99.90;;;;;;4910582;29;20131;-73
2021/01/12 03:49:59;;;;;;;24.35;12.65;;;0.20;99.90;;;;;;4912562;29;20074;-73
2021/01/12 03:52:26;;;;;;;33.47;17.35;;;0.30;99.90;;;;;;4912594;29;20052;-72
2021/01/12 03:54:53;;;;;;;36.38;16.92;;;0.30;99.90;;;;;;4911755;29;20099;-73
2021/01/12 03:57:19;;;;;;;31.13;14.90;;;0.30;99.90;;;;;;4912789;29;20123;-73
2021/01/12 03:59:46;;;;;;;23.85;12.48;;;0.30;99.90;;;;;;4911615;29;20459;-73
2021/01/12 04:02:12;;;;;;;22.60;10.23;;;0.30;99.90;;;;;;4912088;29;20147;-72
2021/01/12 04:04:39;;;;;;;17.92;9.70;;;0.20;99.90;;;;;;4911990;29;20056;-73
2021/01/12 04:07:05;;;;;;;35.03;17.65;;;0.30;99.90;;;;;;4912839;29;20080;-73
2021/01/12 04:09:31;;;;;;;34.42;18.20;;;0.30;99.90;;;;;;4911353;29;20079;-73
2021/01/12 04:11:58;;;;;;;25.30;12.70;;;0.30;99.90;;;;;;4909918;29;20485;-73
2021/01/12 04:14:24;;;;;;;24.05;12.77;;;0.30;99.90;;;;;;4910506;29;20048;-72
2021/01/12 04:16:50;;;;;;;21.58;10.88;;;0.30;99.90;;;;;;4915578;29;20139;-73
2021/01/12 04:19:17;;;;;;;26.33;13.40;;;0.40;99.90;;;;;;4908691;29;20378;-73
2021/01/12 04:21:44;;;;;;;21.13;11.30;;;0.40;99.90;;;;;;4910276;29;20044;-73
2021/01/12 04:24:10;;;;;;;22.23;12.10;;;0.30;99.90;;;;;;4904853;29;20219;-72
2021/01/12 04:26:36;;;;;;;21.75;11.40;;;0.30;99.90;;;;;;4908223;29;20075;-73
2021/01/12 04:29:03;;;;;;;25.48;11.55;;;0.30;99.90;;;;;;4912159;29;20047;-73
2021/01/12 04:31:31;;;;;;;23.00;12.88;;;0.30;99.90;;;;;;4912642;29;20052;-73
2021/01/12 04:33:58;;;;;;;23.10;11.63;;;0.30;99.90;;;;;;4909562;29;20525;-73
2021/01/12 04:36:24;;;;;;;21.08;10.50;;;0.30;99.90;;;;;;4911418;29;20103;-72
2021/01/12 04:38:51;;;;;;;18.27;8.65;;;0.40;99.90;;;;;;4907981;29;20102;-73
2021/01/12 04:41:17;;;;;;;12.60;7.10;;;0.40;99.90;;;;;;4907765;29;20099;-72
2021/01/12 04:43:44;;;;;;;19.55;10.63;;;0.40;99.90;;;;;;4902495;29;20135;-72
2021/01/12 04:46:10;;;;;;;18.95;10.32;;;0.40;99.90;;;;;;4908278;29;20080;-72
2021/01/12 04:48:37;;;;;;;24.65;12.60;;;0.40;99.90;;;;;;4911201;29;20083;-72
2021/01/12 04:51:08;;;;;;;18.80;10.27;;;0.40;99.90;;;;;;4909203;29;20124;-72
2021/01/12 04:53:48;;;;;;;20.98;11.63;;;0.40;99.90;;;;;;4908835;29;20144;-72
2021/01/12 04:56:22;;;;;;;16.08;9.35;;;0.40;99.90;;;;;;4908960;29;20084;-72
2021/01/12 04:58:49;;;;;;;;;;;0.40;99.90;;;;;;4911484;29;20094;-72
2021/01/12 05:01:18;;;;;;;20.10;10.93;;;0.40;99.90;;;;;;4911149;29;19983;-72
2021/01/12 05:03:46;;;;;;;25.63;14.55;;;0.40;99.90;;;;;;4910142;29;20076;-72
2021/01/12 05:06:13;;;;;;;27.40;13.88;;;0.50;99.90;;;;;;4910742;29;20047;-72
2021/01/12 05:08:44;;;;;;;25.75;12.95;;;0.50;99.90;;;;;;4909976;29;20087;-73
2021/01/12 05:11:14;;;;;;;21.77;10.77;;;0.50;99.90;;;;;;4910606;29;20131;-72
2021/01/12 05:13:44;;;;;;;17.63;10.32;;;0.50;99.90;;;;;;4907351;29;20131;-72
2021/01/12 05:16:11;;;;;;;19.02;10.52;;;0.50;99.90;;;;;;4910295;29;20048;-72
2021/01/12 05:18:40;;;;;;;28.88;15.63;;;0.60;99.90;;;;;;4907675;29;20158;-72
2021/01/12 05:21:12;;;;;;;21.95;12.25;;;0.60;99.90;;;;;;4910917;29;20127;-73
2021/01/12 05:23:53;;;;;;;22.23;12.05;;;0.60;99.90;;;;;;4908747;29;20056;-72
2021/01/12 05:26:20;;;;;;;17.52;9.63;;;0.60;99.90;;;;;;4909879;29;20099;-72
2021/01/12 05:28:47;;;;;;;22.15;12.13;;;0.60;99.90;;;;;;4908146;29;20482;-72
2021/01/12 05:31:14;;;;;;;23.90;12.60;;;0.70;99.90;;;;;;4911154;29;20127;-72
2021/01/12 05:33:43;;;;;;;24.25;13.25;;;0.60;99.90;;;;;;4909050;29;20043;-73
2021/01/12 05:36:10;;;;;;;23.73;12.88;;;0.60;99.90;;;;;;4925080;29;20123;-72
2021/01/12 05:38:37;;;;;;;20.10;11.15;;;0.70;99.90;;;;;;4910517;29;20048;-72
2021/01/12 05:41:05;;;;;;;24.48;13.13;;;0.60;99.90;;;;;;4910917;29;20432;-72
2021/01/12 05:43:37;;;;;;;23.17;11.93;;;0.70;99.90;;;;;;4908814;29;20052;-72
2021/01/12 05:46:12;;;;;;;13.73;8.00;;;0.60;99.90;;;;;;4910327;29;20111;-73
2021/01/12 05:48:41;;;;;;;17.60;9.02;;;0.70;99.90;;;;;;4908831;29;20308;-72
2021/01/12 05:51:09;;;;;;;12.18;7.53;;;0.60;99.90;;;;;;4905117;29;20127;-72
2021/01/12 05:53:41;;;;;;;15.18;8.18;;;0.60;99.90;;;;;;4908932;29;20158;-72
2021/01/12 05:56:11;;;;;;;15.00;8.80;;;0.60;99.90;;;;;;4908683;29;20044;-73
2021/01/12 05:58:46;;;;;;;17.10;8.45;;;0.70;99.90;;;;;;4909556;29;20483;-73
2021/01/12 06:01:18;;;;;;;19.83;11.90;;;0.70;99.90;;;;;;4907145;29;20230;-73
2021/01/12 06:03:45;;;;;;;18.55;8.95;;;0.70;99.90;;;;;;4909601;29;20147;-73
2021/01/12 06:06:11;;;;;;;19.85;10.43;;;0.60;99.90;;;;;;4911047;29;20135;-73
2021/01/12 06:08:39;;;;;;;15.65;8.57;;;0.70;99.90;;;;;;4910477;29;20138;-73
2021/01/12 06:11:07;;;;;;;16.05;8.80;;;0.60;99.90;;;;;;4910370;29;20080;-73
2021/01/12 06:13:36;;;;;;;17.75;9.02;;;0.60;99.90;;;;;;4908795;29;20108;-73
2021/01/12 06:16:17;;;;;;;15.00;8.52;;;0.60;99.90;;;;;;4911188;29;20139;-73
2021/01/12 06:19:15;;;;;;;11.27;6.43;;;0.60;99.90;;;;;;4909258;29;20569;-73
2021/01/12 06:21:53;;;;;;;14.65;6.85;;;0.60;99.90;;;;;;4908941;29;20052;-73
2021/01/12 06:24:34;;;;;;;17.17;9.77;;;0.60;99.90;;;;;;4909120;29;20088;-72
2021/01/12 06:27:00;;;;;;;18.33;9.35;;;0.60;99.90;;;;;;4910208;29;20068;-73
2021/01/12 06:29:34;;;;;;;12.55;7.05;;;0.50;99.90;;;;;;4909116;29;20056;-73
2021/01/12 06:32:01;;;;;;;16.35;9.77;;;0.50;99.90;;;;;;4911191;29;20129;-73
2021/01/12 06:34:29;;;;;;;12.55;6.32;;;0.50;99.90;;;;;;4909659;29;20135;-73
2021/01/12 06:36:57;;;;;;;13.40;6.18;;;0.50;99.90;;;;;;4910895;29;20143;-73
2021/01/12 06:39:39;;;;;;;21.90;8.52;;;0.50;99.90;;;;;;4909389;29;20050;-73
2021/01/12 06:42:06;;;;;;;11.43;6.18;;;0.40;99.90;;;;;;4913916;29;20127;-73
2021/01/12 06:44:34;;;;;;;13.27;6.65;;;0.50;99.90;;;;;;4910916;29;20124;-73
2021/01/12 06:47:01;;;;;;;15.93;8.75;;;0.40;99.90;;;;;;4913850;29;20171;-73
2021/01/12 06:49:28;;;;;;;13.05;7.35;;;0.40;99.90;;;;;;4912932;29;20111;-73
2021/01/12 06:52:02;;;;;;;10.30;5.97;;;0.50;99.90;;;;;;4911529;29;20084;-73
2021/01/12 06:54:36;;;;;;;13.20;7.22;;;0.50;99.90;;;;;;4909301;29;20093;-73
2021/01/12 06:57:11;;;;;;;18.35;9.68;;;0.50;99.90;;;;;;4909574;29;20430;-73
2021/01/12 06:59:57;;;;;;;13.50;6.85;;;0.50;99.90;;;;;;4925309;29;20052;-73
2021/01/12 07:02:27;;;;;;;14.48;8.18;;;0.50;99.90;;;;;;4913187;29;20127;-73
2021/01/12 07:04:57;;;;;;;10.38;6.07;;;0.50;99.90;;;;;;4911866;29;20142;-73
2021/01/12 07:07:26;;;;;;;13.30;7.10;;;0.40;99.90;;;;;;4910071;29;20052;-73
2021/01/12 07:10:00;;;;;;;13.43;7.07;;;0.40;99.90;;;;;;4911485;29;20102;-73
2021/01/12 07:12:28;;;;;;;13.00;6.57;;;0.40;99.90;;;;;;4910434;29;20454;-73
2021/01/12 07:27:57;;;;;;;8.73;3.88;;;0.40;99.90;;;;;;5075233;27;20875;-66
2021/01/12 07:30:25;;;;;;;14.73;7.97;;;0.50;99.90;;;;;;5058426;28;20112;-68
2021/01/12 07:33:03;;;;;;;10.25;4.45;;;0.40;99.90;;;;;;5062422;28;20064;-67
2021/01/12 07:35:30;;;;;;;40.88;5.22;;;0.40;99.90;;;;;;5056089;28;20135;-67
2021/01/12 07:37:57;;;;;;;7.85;3.67;;;0.40;99.90;;;;;;5060701;28;20097;-67
2021/01/12 07:40:24;;;;;;;9.10;4.97;;;0.40;99.90;;;;;;5056320;28;20087;-67
2021/01/12 07:42:56;;;;;;;9.55;5.63;;;0.40;99.90;;;;;;5061335;28;20247;-66
2021/01/12 07:45:28;;;;;;;6.88;3.63;;;0.40;99.90;;;;;;5061461;28;20048;-66
2021/01/12 07:47:56;;;;;;;9.52;4.88;;;0.40;99.90;;;;;;5059959;28;20132;-67
2021/01/12 07:50:24;;;;;;;10.48;6.28;;;0.30;99.90;;;;;;5053152;28;20057;-67
2021/01/12 07:52:51;;;;;;;10.23;5.55;;;0.40;99.90;;;;;;5059712;28;20080;-67
2021/01/12 07:55:17;;;;;;;6.65;3.92;;;0.40;99.90;;;;;;5060161;28;20495;-67
2021/01/12 07:57:48;;;;;;;10.82;4.55;;;0.40;99.90;;;;;;5055555;28;20048;-67
2021/01/12 08:00:17;;;;;;;13.38;5.10;;;0.40;99.90;;;;;;5057851;28;20128;-67
2021/01/12 08:02:48;;;;;;;7.35;4.07;;;0.40;99.90;;;;;;5058907;28;20417;-68
2021/01/12 08:05:17;;;;;;;10.25;5.70;;;0.40;99.90;;;;;;5062174;28;20049;-67
2021/01/12 08:07:44;;;;;;;8.88;4.90;;;0.40;99.90;;;;;;5060754;28;20106;-67
2021/01/12 08:10:11;;;;;;;8.60;4.97;;;0.40;99.90;;;;;;5062348;28;20506;-67
2021/01/12 08:13:08;;;;;;;9.57;3.30;;;0.40;99.90;;;;;;5060088;28;20053;-67
2021/01/12 08:15:36;;;;;;;5.55;2.88;;;0.40;99.90;;;;;;5059040;28;20045;-67
2021/01/12 08:18:10;;;;;;;9.13;5.75;;;0.40;99.90;;;;;;5058046;28;20522;-67
2021/01/12 08:20:38;;;;;;;11.93;4.68;;;0.50;99.90;;;;;;5063147;28;20055;-67
2021/01/12 08:23:05;;;;;;;9.32;4.88;;;0.40;99.90;;;;;;5057028;28;20077;-67
2021/01/12 08:25:35;;;;;;;6.78;3.38;;;0.40;99.90;;;;;;5053303;28;20181;-67
2021/01/12 08:28:01;;;;;;;6.88;4.32;;;0.50;99.90;;;;;;5041130;28;20160;-67
2021/01/12 08:30:30;;;;;;;15.10;7.38;;;0.50;99.90;;;;;;5049768;28;20045;-67
2021/01/12 08:33:08;;;;;;;13.70;6.53;;;0.40;99.90;;;;;;5031984;28;20533;-67
2021/01/12 08:35:39;;;;;;;12.27;6.28;;;0.40;99.90;;;;;;5045071;28;20121;-68
2021/01/12 08:38:07;;;;;;;8.32;4.05;;;0.50;99.90;;;;;;5036602;28;20447;-67
2021/01/12 08:40:43;;;;;;;19.85;9.02;;;0.50;99.90;;;;;;5044336;28;20048;-68
2021/01/12 08:43:20;;;;;;;7.55;3.97;;;0.50;99.90;;;;;;5045579;28;20448;-68
2021/01/12 08:45:48;;;;;;;7.63;3.63;;;0.50;99.90;;;;;;5041800;28;20053;-68
2021/01/12 08:48:17;;;;;;;5.45;3.42;;;0.50;99.90;;;;;;5041231;28;20144;-67
2021/01/12 08:50:45;;;;;;;8.07;3.75;;;0.50;99.90;;;;;;5038086;28;20061;-67
2021/01/12 08:53:25;;;;;;;10.98;5.82;;;0.50;99.90;;;;;;5038613;28;20131;-68
2021/01/12 08:55:51;;;;;;;9.93;4.85;;;0.50;99.90;;;;;;5047840;28;20079;-67
2021/01/12 08:58:18;;;;;;;8.07;3.45;;;0.60;99.90;;;;;;5034007;28;20423;-68
2021/01/12 09:00:44;;;;;;;14.20;3.17;;;0.50;99.90;;;;;;5039410;28;20049;-68
2021/01/12 09:03:14;;;;;;;6.40;3.28;;;0.50;99.90;;;;;;5034126;28;20553;-67
2021/01/12 09:05:42;;;;;;;7.32;4.18;;;0.50;99.90;;;;;;5041251;28;20561;-68
2021/01/12 09:08:11;;;;;;;14.43;5.03;;;0.50;99.90;;;;;;5046102;28;20049;-67
2021/01/12 09:10:39;;;;;;;6.15;2.22;;;0.50;99.90;;;;;;5038846;28;20136;-67
2021/01/12 09:13:08;;;;;;;5.38;2.45;;;0.50;99.90;;;;;;5039828;28;20103;-67
2021/01/12 09:15:37;;;;;;;4.55;2.55;;;0.50;99.90;;;;;;5039260;28;20131;-67
2021/01/12 09:18:15;;;;;;;6.20;2.28;;;0.50;99.90;;;;;;5033325;28;20053;-68
2021/01/12 09:20:41;;;;;;;5.35;2.22;;;0.50;99.90;;;;;;5044989;28;20087;-67
2021/01/12 09:23:12;;;;;;;6.22;3.33;;;0.60;99.90;;;;;;5034510;28;20079;-68
2021/01/12 09:26:00;;;;;;;6.90;2.42;;;0.60;99.90;;;;;;5041240;28;20125;-68
2021/01/12 09:28:30;;;;;;;6.05;1.90;;;0.60;99.90;;;;;;5043984;28;20076;-68
2021/01/12 09:31:09;;;;;;;12.75;2.33;;;0.60;99.90;;;;;;5042134;28;20175;-68
2021/01/12 09:33:37;;;;;;;4.10;2.20;;;0.60;99.90;;;;;;5041628;28;20694;-68
2021/01/12 09:36:13;;;;;;;5.55;2.38;;;0.70;99.90;;;;;;5037711;28;20121;-68
2021/01/12 09:38:45;;;;;;;6.45;3.08;;;0.70;99.90;;;;;;5040638;28;20090;-67
2021/01/12 09:41:13;;;;;;;5.75;2.92;;;0.70;99.90;;;;;;5035064;28;20521;-68
2021/01/12 09:43:41;;;;;;;3.65;1.98;;;0.60;99.90;;;;;;5038067;28;20128;-68
2021/01/12 09:46:08;;;;;;;7.03;3.78;;;0.70;99.90;;;;;;5045456;28;20441;-67
2021/01/12 09:48:36;;;;;;;5.13;2.33;;;0.70;99.90;;;;;;5039226;28;20056;-67
2021/01/12 09:51:06;;;;;;;3.75;2.15;;;0.80;99.90;;;;;;5043841;28;20060;-67
2021/01/12 09:53:32;;;;;;;5.80;1.98;;;0.80;99.90;;;;;;5046397;28;20560;-67
2021/01/12 09:55:59;;;;;;;5.07;2.50;;;0.80;99.90;;;;;;5045442;28;20044;-67
2021/01/12 09:58:27;;;;;;;7.35;3.03;;;0.80;99.90;;;;;;5046736;28;20491;-67
2021/01/12 10:00:55;;;;;;;3.88;2.08;;;0.80;99.90;;;;;;5037760;28;20049;-67
2021/01/12 10:03:22;;;;;;;2.75;1.70;;;0.80;99.90;;;;;;5037248;28;20510;-67
2021/01/12 10:05:48;;;;;;;5.07;1.95;;;0.80;99.90;;;;;;5038577;28;20089;-67
2021/01/12 10:08:15;;;;;;;4.05;2.20;;;0.80;99.90;;;;;;5042984;28;20049;-67
2021/01/12 10:10:41;;;;;;;3.42;1.35;;;0.70;99.90;;;;;;5044210;28;20107;-67
2021/01/12 10:13:08;;;;;;;4.22;2.20;;;0.70;99.90;;;;;;5046554;28;20148;-67
2021/01/12 10:15:34;;;;;;;4.60;2.55;;;0.80;99.90;;;;;;5047843;28;20143;-67
2021/01/12 10:18:01;;;;;;;4.00;2.17;;;0.80;99.90;;;;;;5034051;28;20498;-67
2021/01/12 10:20:27;;;;;;;4.53;2.08;;;0.80;99.90;;;;;;5041651;28;20089;-67
2021/01/12 10:22:54;;;;;;;4.50;2.33;;;0.80;99.90;;;;;;5038482;28;20071;-67
2021/01/12 10:25:20;;;;;;;3.35;1.67;;;0.80;99.90;;;;;;5032381;28;20149;-67
2021/01/12 10:27:47;;;;;;;4.07;2.10;;;0.90;99.90;;;;;;5035019;28;20139;-67
2021/01/12 10:30:14;;;;;;;4.95;2.40;;;0.90;99.90;;;;;;5036473;28;20048;-67
2021/01/12 10:32:45;;;;;;;3.10;1.50;;;0.90;99.90;;;;;;5045318;28;20041;-67
2021/01/12 10:35:12;;;;;;;2.72;1.17;;;0.90;99.90;;;;;;5041660;28;20041;-68
2021/01/12 10:37:39;;;;;;;4.07;2.45;;;1.00;99.90;;;;;;5042239;28;20045;-67
2021/01/12 10:40:06;;;;;;;4.10;2.03;;;1.00;99.90;;;;;;5038900;28;20076;-67
2021/01/12 10:42:32;;;;;;;4.05;2.30;;;0.90;99.90;;;;;;5041240;28;20483;-67
2021/01/12 10:44:59;;;;;;;4.53;2.25;;;0.90;99.90;;;;;;5038706;28;20102;-67
2021/01/12 10:47:26;;;;;;;5.13;2.55;;;1.00;99.90;;;;;;5038242;28;20053;-68
2021/01/12 10:49:53;;;;;;;2.60;1.50;;;1.00;99.90;;;;;;5035982;28;20526;-68
2021/01/12 10:52:19;;;;;;;4.18;2.25;;;1.00;99.90;;;;;;5036931;28;20092;-68
2021/01/12 10:54:46;;;;;;;3.88;1.65;;;1.00;99.90;;;;;;5037338;28;20046;-68
2021/01/12 10:57:13;;;;;;;4.47;2.08;;;1.00;99.90;;;;;;5037535;28;20081;-68
2021/01/12 10:59:39;;;;;;;3.25;1.52;;;1.00;99.90;;;;;;5043856;28;20033;-68
2021/01/12 11:02:06;;;;;;;3.10;1.70;;;1.10;99.90;;;;;;5044842;28;20151;-68
2021/01/12 11:04:33;;;;;;;4.20;2.03;;;1.00;99.90;;;;;;5043944;28;20045;-68
2021/01/12 11:07:00;;;;;;;3.60;1.63;;;1.10;99.90;;;;;;5043169;28;20466;-68
2021/01/12 11:09:27;;;;;;;3.80;1.75;;;1.10;99.90;;;;;;5046331;28;20194;-68
2021/01/12 11:12:02;;;;;;;3.83;1.73;;;1.10;99.90;;;;;;5046606;28;20159;-68
2021/01/12 11:14:29;;;;;;;4.68;1.85;;;1.10;99.90;;;;;;5041219;28;20123;-68
2021/01/12 11:16:55;;;;;;;3.60;1.70;;;1.10;99.90;;;;;;5043264;28;20132;-68
2021/01/12 11:19:22;;;;;;;3.88;2.30;;;1.10;99.90;;;;;;5043129;28;20048;-68
2021/01/12 11:21:50;;;;;;;5.63;1.92;;;1.10;99.90;;;;;;5043708;28;20037;-68
2021/01/12 11:24:25;;;;;;;4.35;1.83;;;1.10;99.90;;;;;;5042432;28;20042;-68
2021/01/12 11:26:53;;;;;;;4.63;2.20;;;1.00;99.90;;;;;;5042438;28;20120;-67
2021/01/12 11:29:20;;;;;;;4.13;2.15;;;1.10;99.90;;;;;;5038413;28;20422;-67
2021/01/12 11:31:47;;;;;;;6.22;2.40;;;1.10;99.90;;;;;;5037343;28;20084;-67
2021/01/12 11:34:14;;;;;;;3.75;1.73;;;1.10;99.90;;;;;;5031575;28;20085;-67
2021/01/12 11:36:43;;;;;;;6.03;2.40;;;1.30;99.90;;;;;;5038513;28;20087;-67
2021/01/12 11:39:12;;;;;;;3.88;1.23;;;1.20;99.90;;;;;;5039731;28;20440;-67
2021/01/12 11:41:50;;;;;;;4.53;1.88;;;1.20;99.90;;;;;;5044271;28;20041;-68
2021/01/12 11:44:19;;;;;;;2.25;1.25;;;1.10;99.90;;;;;;5039093;28;20053;-68
2021/01/12 11:46:46;;;;;;;4.38;2.22;;;1.20;99.90;;;;;;5031125;28;20540;-68
2021/01/12 11:49:13;;;;;;;4.70;2.42;;;1.10;99.90;;;;;;5040800;28;20045;-68
2021/01/12 11:51:41;;;;;;;4.72;2.03;;;1.10;99.90;;;;;;5037753;28;20387;-68
2021/01/12 11:54:09;;;;;;;3.95;1.73;;;1.10;99.90;;;;;;5039120;28;20053;-68
2021/01/12 11:56:36;;;;;;;7.28;2.72;;;1.10;99.90;;;;;;5039605;28;20076;-68
2021/01/12 11:59:04;;;;;;;3.65;1.88;;;1.10;99.90;;;;;;5039679;28;20474;-68
2021/01/12 12:01:44;;;;;;;3.35;1.52;;;1.10;99.90;;;;;;5045273;28;20102;-68
2021/01/12 12:04:11;;;;;;;6.15;2.85;;;1.20;99.90;;;;;;5038430;28;20507;-68
2021/01/12 12:06:37;;;;;;;7.95;4.07;;;1.20;99.90;;;;;;5045698;28;20111;-68
2021/01/12 12:09:04;;;;;;;4.72;2.05;;;1.20;99.90;;;;;;5042294;28;20085;-68
2021/01/12 12:11:38;;;;;;;4.78;2.00;;;1.20;99.90;;;;;;5034417;28;20127;-68
2021/01/12 12:14:06;;;;;;;3.53;1.30;;;1.20;99.90;;;;;;5041696;28;20132;-68
2021/01/12 12:16:33;;;;;;;3.75;2.17;;;1.20;99.90;;;;;;5038477;28;20123;-66
2021/01/12 12:19:00;;;;;;;2.20;1.27;;;1.10;99.90;;;;;;5047406;28;20052;-69
2021/01/12 12:21:49;;;;;;;2.80;1.52;;;1.20;99.90;;;;;;5046984;28;20045;-66
2021/01/12 12:24:16;;;;;;;4.07;1.77;;;1.20;99.90;;;;;;5039989;28;20136;-69
2021/01/12 12:26:46;;;;;;;3.10;1.33;;;1.20;99.90;;;;;;5042003;28;20589;-69
2021/01/12 12:29:13;;;;;;;4.43;1.55;;;1.20;99.90;;;;;;5039951;28;20235;-68
2021/01/12 12:31:40;;;;;;;4.53;1.60;;;1.20;99.90;;;;;;5040628;28;20148;-69
2021/01/12 12:34:07;;;;;;;4.25;2.05;;;1.20;99.90;;;;;;5040669;28;20049;-69
2021/01/12 12:36:34;;;;;;;4.50;2.45;;;1.20;99.90;;;;;;5042589;28;20037;-68
2021/01/12 12:39:01;;;;;;;2.22;0.90;;;1.30;99.90;;;;;;5035993;28;20047;-69
2021/01/12 12:41:31;;;;;;;5.57;1.83;;;1.20;99.90;;;;;;5040277;28;20049;-69
2021/01/12 12:43:59;;;;;;;3.60;1.73;;;1.10;99.90;;;;;;5035500;28;20042;-69
2021/01/12 12:46:26;;;;;;;3.42;1.20;;;1.20;99.90;;;;;;5040167;28;20148;-69
2021/01/12 12:48:52;;;;;;;4.95;2.08;;;1.30;99.90;;;;;;5035576;28;20140;-67
2021/01/12 12:51:19;;;;;;;4.85;2.63;;;1.20;99.90;;;;;;5037108;28;20065;-67
2021/01/12 12:53:48;;;;;;;4.20;1.42;;;1.30;99.90;;;;;;5042444;28;20045;-67
2021/01/12 12:56:15;;;;;;;4.18;1.70;;;1.30;99.90;;;;;;5045176;28;20073;-69
2021/01/12 12:58:43;;;;;;;3.83;1.70;;;1.40;99.90;;;;;;5029315;28;20057;-69
2021/01/12 13:01:12;;;;;;;2.72;1.38;;;1.30;99.90;;;;;;5039504;28;20049;-67
2021/01/12 13:03:40;;;;;;;2.92;1.38;;;1.30;99.90;;;;;;5048799;28;20193;-67
2021/01/12 13:06:07;;;;;;;5.60;2.67;;;1.30;99.90;;;;;;5040875;28;20408;-68